Time;durP1;ratioP1;P1;durP2;ratioP2;P2;SDS_P1;SDS_P2;PMS_P1;PMS_P2;Temp;Humidity;BMP_temperature;BMP_pressure;BME280_temperature;BME280_humidity;BME280_pressure;Samples;Min_cycle;Max_cycle;Signal;HPM_P1;HPM_P2
2022/03/28 00:01:04;;;;;;;25.15;11.60;;;;;;;6.53;81.18;102667.44;5121648;27;20081;-72
2022/03/28 00:03:29;;;;;;;25.10;12.50;;;;;;;6.52;81.53;102665.69;5112807;28;20023;-72
2022/03/28 00:05:55;;;;;;;21.77;11.73;;;;;;;6.53;81.84;102668.31;5121634;28;20027;-72
2022/03/28 00:08:20;;;;;;;23.90;12.07;;;;;;;6.48;81.70;102663.88;5125569;28;20023;-72
2022/03/28 00:10:46;;;;;;;24.88;12.15;;;;;;;6.48;81.83;102664.75;5121746;28;20031;-72
2022/03/28 00:13:11;;;;;;;25.88;11.68;;;;;;;6.42;81.83;102653.38;5114032;27;20026;-72
2022/03/28 00:15:37;;;;;;;21.85;11.60;;;;;;;6.33;81.87;102634.19;5127280;27;20023;-72
2022/03/28 00:18:02;;;;;;;22.55;11.57;;;;;;;6.30;81.76;102644.47;5116062;28;20074;-72
2022/03/28 00:20:27;;;;;;;27.20;12.27;;;;;;;6.24;82.26;102641.72;5127334;28;20031;-72
2022/03/28 00:22:52;;;;;;;22.90;12.10;;;;;;;6.12;82.41;102628.53;5113965;28;20039;-72
2022/03/28 00:25:18;;;;;;;29.05;13.02;;;;;;;6.17;83.02;102637.25;5127097;28;20491;-72
2022/03/28 00:27:43;;;;;;;30.05;12.40;;;;;;;6.07;83.08;102625.81;5131793;28;20113;-72
2022/03/28 00:30:09;;;;;;;21.55;11.65;;;;;;;6.13;83.34;102640.63;5126143;27;20068;-72
2022/03/28 00:32:34;;;;;;;29.90;12.80;;;;;;;6.14;83.46;102631.13;5115677;27;20058;-72
2022/03/28 00:35:00;;;;;;;25.00;12.18;;;;;;;6.09;83.84;102624.16;5123939;27;20062;-72
2022/03/28 00:37:25;;;;;;;26.48;11.65;;;;;;;6.12;83.92;102622.47;5134777;27;20012;-72
2022/03/28 00:39:51;;;;;;;24.65;12.02;;;;;;;6.04;84.67;102615.38;5133884;27;20478;-72
2022/03/28 00:42:16;;;;;;;20.38;11.60;;;;;;;6.01;84.28;102620.47;5119525;27;20031;-72
2022/03/28 00:44:41;;;;;;;34.28;12.40;;;;;;;5.90;84.32;102592.56;5126756;27;20027;-72
2022/03/28 00:47:07;;;;;;;25.55;12.52;;;;;;;5.96;84.32;102610.88;5134267;27;20103;-72
2022/03/28 00:49:32;;;;;;;25.70;11.85;;;;;;;5.95;84.56;102609.09;5126432;27;20074;-72
2022/03/28 00:51:58;;;;;;;24.17;12.98;;;;;;;5.90;84.59;102611.56;5116394;27;20027;-72
2022/03/28 00:54:23;;;;;;;30.83;12.85;;;;;;;5.87;84.95;102616.66;5120708;27;20474;-72
2022/03/28 00:56:49;;;;;;;27.08;12.95;;;;;;;5.85;84.51;102614.06;5115707;27;20077;-72
2022/03/28 00:59:15;;;;;;;25.63;12.57;;;;;;;5.82;84.96;102607.91;5122930;27;20023;-72
2022/03/28 01:01:40;;;;;;;27.58;13.18;;;;;;;5.78;85.02;102601.78;5128589;27;20022;-72
2022/03/28 01:04:07;;;;;;;29.23;12.25;;;;;;;5.74;84.84;102594.78;5126171;27;20114;-72
2022/03/28 01:06:34;;;;;;;28.00;12.82;;;;;;;5.69;85.23;102591.22;5114469;28;20043;-72
2022/03/28 01:09:00;;;;;;;29.73;12.35;;;;;;;5.67;85.44;102586.84;5105679;27;20024;-71
2022/03/28 01:11:26;;;;;;;28.17;13.43;;;;;;;5.66;85.14;102585.06;5113203;27;20395;-72
2022/03/28 01:13:52;;;;;;;30.35;12.15;;;;;;;5.60;85.89;102594.44;5106383;27;20035;-72
2022/03/28 01:16:18;;;;;;;23.50;12.63;;;;;;;5.56;85.95;102581.41;5099346;28;20483;-72
2022/03/28 01:18:50;;;;;;;24.00;12.05;;;;;;;5.58;86.15;102587.47;5103363;28;20089;-72
2022/03/28 01:21:18;;;;;;;23.65;11.90;;;;;;;5.59;85.79;102578.88;5104038;28;20111;-72
2022/03/28 01:23:44;;;;;;;25.38;12.75;;;;;;;5.55;86.23;102572.75;5108978;28;20036;-72
2022/03/28 01:26:10;;;;;;;27.17;12.52;;;;;;;5.49;86.23;102575.19;5102140;28;20023;-72
2022/03/28 01:28:35;;;;;;;28.25;12.15;;;;;;;5.48;86.34;102573.44;5112379;28;20383;-72
2022/03/28 01:31:01;;;;;;;30.67;13.50;;;;;;;5.46;86.63;102564.78;5117293;27;20382;-72
2022/03/28 01:33:26;;;;;;;29.10;13.00;;;;;;;5.46;86.67;102564.78;5127487;27;20419;-72
2022/03/28 01:35:52;;;;;;;22.98;12.10;;;;;;;5.43;86.80;102556.03;5120659;27;20415;-72
2022/03/28 01:38:19;;;;;;;23.33;11.75;;;;;;;5.40;86.36;102549.97;5132232;27;20030;-72
2022/03/28 01:40:47;;;;;;;30.60;12.70;;;;;;;5.38;86.74;102555.94;5118954;27;20139;-72
2022/03/28 01:43:12;;;;;;;24.13;12.35;;;;;;;5.33;87.13;102549.75;5115887;27;20027;-72
2022/03/28 01:45:38;;;;;;;27.02;11.93;;;;;;;5.31;87.26;102552.31;5115625;27;20039;-72
2022/03/28 01:48:07;;;;;;;26.45;12.15;;;;;;;5.28;87.93;102552.25;5113112;28;20071;-72
2022/03/28 01:50:33;;;;;;;27.20;12.32;;;;;;;5.28;88.17;102561.72;5129241;27;20122;-72
2022/03/28 01:52:59;;;;;;;27.15;11.98;;;;;;;5.26;88.13;102556.50;5113602;28;20219;-72
2022/03/28 01:55:24;;;;;;;26.67;13.20;;;;;;;5.25;88.17;102554.75;5126483;27;20451;-72
2022/03/28 01:57:50;;;;;;;26.23;12.68;;;;;;;5.18;88.63;102558.03;5113486;28;20031;-72
2022/03/28 02:00:21;;;;;;;28.58;12.27;;;;;;;5.13;88.62;102555.31;5130432;27;20027;-72
2022/03/28 02:02:47;;;;;;;26.10;12.70;;;;;;;5.11;88.80;102548.34;5120223;27;20043;-72
2022/03/28 02:05:15;;;;;;;26.02;12.35;;;;;;;5.06;88.79;102545.63;5123842;27;20038;-72
2022/03/28 02:07:43;;;;;;;27.08;12.63;;;;;;;5.05;89.16;102550.78;5121241;27;20039;-72
2022/03/28 02:10:10;;;;;;;24.80;12.55;;;;;;;4.94;88.75;102535.00;5116741;27;20482;-72
2022/03/28 02:12:35;;;;;;;30.80;12.82;;;;;;;4.97;89.20;102547.09;5127593;27;20478;-72
2022/03/28 02:15:02;;;;;;;28.40;12.93;;;;;;;4.91;89.19;102543.53;5121576;27;20027;-72
2022/03/28 02:17:27;;;;;;;24.90;12.27;;;;;;;4.86;89.30;102547.69;5133449;27;20455;-72
2022/03/28 02:19:52;;;;;;;28.00;12.70;;;;;;;4.79;89.45;102543.19;5130179;27;20038;-72
2022/03/28 02:22:17;;;;;;;27.63;13.85;;;;;;;4.78;89.44;102530.25;5120471;27;20137;-72
2022/03/28 02:24:43;;;;;;;24.25;12.30;;;;;;;4.74;89.35;102529.28;5114923;27;20042;-72
2022/03/28 02:27:08;;;;;;;29.23;11.95;;;;;;;4.69;89.10;102523.09;5113290;28;20032;-71
2022/03/28 02:29:33;;;;;;;23.98;12.43;;;;;;;4.67;88.94;102527.34;5113278;28;20080;-72
2022/03/28 02:31:59;;;;;;;22.60;12.88;;;;;;;4.66;89.62;102525.59;5124663;27;20034;-72
2022/03/28 02:34:24;;;;;;;25.52;11.93;;;;;;;4.63;89.36;102522.94;5120621;27;20031;-72
2022/03/28 02:36:49;;;;;;;24.33;12.15;;;;;;;4.60;89.62;102512.50;5122587;27;20474;-72
2022/03/28 02:39:15;;;;;;;31.50;12.43;;;;;;;4.61;89.46;102516.81;5119046;27;20228;-72
2022/03/28 02:41:40;;;;;;;22.73;11.38;;;;;;;4.58;89.97;102515.06;5118492;27;20110;-72
2022/03/28 02:44:05;;;;;;;28.02;12.32;;;;;;;4.63;90.29;102510.00;5113445;27;20367;-72
2022/03/28 02:46:31;;;;;;;21.92;11.18;;;;;;;4.59;90.14;102508.19;5112616;28;20098;-72
2022/03/28 02:48:56;;;;;;;26.13;12.65;;;;;;;4.52;90.49;102499.38;5114790;27;20049;-72
2022/03/28 02:51:21;;;;;;;27.00;12.43;;;;;;;4.47;90.71;102494.06;5122987;27;20111;-72
2022/03/28 02:53:47;;;;;;;29.02;12.18;;;;;;;4.52;90.56;102498.53;5121411;27;20027;-72
2022/03/28 02:56:12;;;;;;;22.75;11.75;;;;;;;4.48;90.63;102497.56;5126179;27;20467;-72
2022/03/28 02:58:37;;;;;;;24.98;11.32;;;;;;;4.46;90.73;102497.50;5126628;27;20050;-72
2022/03/28 03:01:02;;;;;;;29.58;11.63;;;;;;;4.44;91.40;102498.28;5118487;27;20035;-72
2022/03/28 03:03:28;;;;;;;28.45;12.40;;;;;;;4.38;91.46;102486.09;5130184;27;20031;-72
2022/03/28 03:05:53;;;;;;;25.10;11.70;;;;;;;4.37;91.76;102491.19;5111406;28;20433;-72
2022/03/28 03:08:18;;;;;;;33.00;11.95;;;;;;;4.34;91.63;102488.53;5115127;27;20029;-72
2022/03/28 03:10:44;;;;;;;27.20;12.50;;;;;;;4.32;91.49;102492.78;5131956;27;20441;-72
2022/03/28 03:13:10;;;;;;;25.95;11.70;;;;;;;4.29;91.87;102488.41;5129823;27;20034;-72
2022/03/28 03:15:36;;;;;;;27.58;11.38;;;;;;;4.28;92.24;102478.03;5127639;27;20019;-72
2022/03/28 03:18:03;;;;;;;24.20;12.60;;;;;;;4.29;91.83;102475.50;5111419;28;20364;-71
2022/03/28 03:20:28;;;;;;;25.63;11.77;;;;;;;4.29;92.46;102479.78;5125748;27;20387;-71
2022/03/28 03:22:53;;;;;;;27.02;11.85;;;;;;;4.26;92.05;102472.84;5113046;28;20031;-72
2022/03/28 03:25:19;;;;;;;30.70;12.48;;;;;;;4.19;92.51;102482.09;5117680;27;20053;-72
2022/03/28 03:27:44;;;;;;;28.58;12.02;;;;;;;4.16;92.61;102482.00;5132722;27;20057;-72
2022/03/28 03:30:11;;;;;;;28.80;11.27;;;;;;;4.20;92.37;102482.97;5130792;27;20445;-71
2022/03/28 03:32:36;;;;;;;26.50;11.50;;;;;;;4.16;92.06;102479.44;5127186;27;20030;-72
2022/03/28 03:35:07;;;;;;;25.80;11.38;;;;;;;4.13;92.77;102479.34;5122242;28;20035;-71
2022/03/28 03:37:32;;;;;;;23.52;11.60;;;;;;;4.09;92.75;102471.47;5116032;27;20042;-72
2022/03/28 03:39:57;;;;;;;29.77;12.13;;;;;;;4.05;92.71;102464.44;5118727;28;20019;-72
2022/03/28 03:42:22;;;;;;;23.85;11.27;;;;;;;3.95;93.31;102461.59;5121479;28;20031;-71
2022/03/28 03:44:48;;;;;;;26.98;12.00;;;;;;;3.93;93.29;102460.69;5129864;27;20019;-72
2022/03/28 03:47:13;;;;;;;26.20;12.35;;;;;;;3.92;93.21;102455.47;5130728;28;20047;-72
2022/03/28 03:49:38;;;;;;;26.27;11.57;;;;;;;3.91;92.96;102454.59;5130390;27;20035;-72
2022/03/28 03:52:04;;;;;;;22.52;12.18;;;;;;;3.90;92.81;102455.44;5132534;27;20079;-72
2022/03/28 03:54:30;;;;;;;27.08;11.13;;;;;;;3.91;93.48;102451.16;5116022;27;20040;-71
2022/03/28 03:56:56;;;;;;;29.98;12.00;;;;;;;3.92;93.01;102443.47;5116003;28;20046;-72
2022/03/28 03:59:21;;;;;;;29.27;12.50;;;;;;;3.87;93.10;102436.41;5100298;28;20105;-71
2022/03/28 04:01:46;;;;;;;27.52;12.00;;;;;;;3.81;92.92;102444.84;5124597;28;20080;-72
2022/03/28 04:04:12;;;;;;;29.00;12.13;;;;;;;3.77;93.46;102447.28;5120254;28;20032;-72
2022/03/28 04:06:39;;;;;;;30.80;12.02;;;;;;;3.75;94.39;102447.22;5111471;28;20440;-71
2022/03/28 04:09:07;;;;;;;27.95;11.43;;;;;;;3.79;94.20;102438.75;5129356;27;20110;-71
2022/03/28 04:11:32;;;;;;;27.75;12.43;;;;;;;3.77;94.03;102440.44;5122258;27;20027;-72
2022/03/28 04:13:58;;;;;;;25.40;11.82;;;;;;;3.79;94.14;102435.31;5120618;27;20019;-71
2022/03/28 04:16:24;;;;;;;27.30;12.82;;;;;;;3.76;94.52;102430.94;5094323;28;20107;-71
2022/03/28 04:18:49;;;;;;;32.00;12.43;;;;;;;3.78;94.63;102438.72;5108683;27;20015;-71
2022/03/28 04:21:15;;;;;;;33.88;13.07;;;;;;;3.72;94.42;102429.94;5135154;27;20105;-72
2022/03/28 04:23:40;;;;;;;25.25;11.77;;;;;;;3.74;94.66;102430.00;5127645;27;20024;-72
2022/03/28 04:26:05;;;;;;;30.75;12.35;;;;;;;3.75;94.57;102436.91;5115634;28;20035;-71
2022/03/28 04:28:31;;;;;;;28.15;12.90;;;;;;;3.72;95.42;102436.81;5116769;27;20031;-72
2022/03/28 04:30:56;;;;;;;36.58;12.73;;;;;;;3.72;95.29;102434.25;5116208;27;20032;-72
2022/03/28 04:33:22;;;;;;;32.20;12.85;;;;;;;3.70;95.26;102438.50;5117274;27;20095;-71
2022/03/28 04:35:47;;;;;;;31.05;12.38;;;;;;;3.71;94.94;102427.34;5117337;27;20031;-71
2022/03/28 04:38:12;;;;;;;29.55;12.20;;;;;;;3.70;95.27;102433.34;5122541;27;20015;-72
2022/03/28 04:40:38;;;;;;;31.73;12.50;;;;;;;3.67;95.38;102438.41;5123811;27;20035;-71
2022/03/28 04:43:04;;;;;;;36.95;12.82;;;;;;;3.65;96.05;102443.50;5118424;27;20042;-72
2022/03/28 04:45:30;;;;;;;29.90;11.95;;;;;;;3.62;95.42;102433.09;5133715;27;20367;-71
2022/03/28 04:47:57;;;;;;;32.00;12.63;;;;;;;3.54;95.48;102423.38;5123378;27;20424;-71
2022/03/28 04:50:22;;;;;;;31.33;10.98;;;;;;;3.55;95.65;102426.00;5132717;27;20059;-72
2022/03/28 04:52:47;;;;;;;27.63;12.00;;;;;;;3.48;95.44;102434.38;5130796;27;20071;-71
2022/03/28 04:55:13;;;;;;;42.13;13.07;;;;;;;3.45;95.90;102431.69;5135341;27;20110;-71
2022/03/28 04:57:39;;;;;;;35.08;12.32;;;;;;;3.42;95.76;102435.06;5131151;27;20647;-71
2022/03/28 05:00:06;;;;;;;28.45;12.52;;;;;;;3.39;96.64;102445.25;5126957;27;20031;-71
2022/03/28 05:02:32;;;;;;;37.60;13.32;;;;;;;3.38;96.26;102442.66;5115748;27;20023;-71
2022/03/28 05:04:57;;;;;;;26.50;11.57;;;;;;;3.34;96.17;102439.09;5126511;27;20038;-71
2022/03/28 05:07:27;;;;;;;28.58;12.00;;;;;;;3.32;96.95;102440.75;5114846;27;20031;-71
2022/03/28 05:09:53;;;;;;;34.50;12.63;;;;;;;3.35;95.87;102439.97;5114689;27;20452;-72
2022/03/28 05:12:22;;;;;;;26.10;11.73;;;;;;;3.34;96.58;102444.25;5123871;27;20106;-71
2022/03/28 05:14:48;;;;;;;25.10;11.68;;;;;;;3.31;96.12;102435.56;5120299;27;20106;-71
2022/03/28 05:17:15;;;;;;;29.98;11.93;;;;;;;3.27;96.51;102432.00;5134803;27;20534;-71
2022/03/28 05:19:42;;;;;;;31.90;11.73;;;;;;;3.22;97.01;102436.13;5114792;27;20028;-71
2022/03/28 05:22:08;;;;;;;29.52;12.65;;;;;;;3.19;97.23;102436.91;5114914;28;20030;-71
2022/03/28 05:24:34;;;;;;;30.77;13.35;;;;;;;3.20;97.95;102436.06;5126860;27;20027;-71
2022/03/28 05:26:59;;;;;;;24.30;11.38;;;;;;;3.20;97.66;102428.34;5123291;27;20119;-71
2022/03/28 05:29:24;;;;;;;33.53;13.15;;;;;;;3.23;97.91;102432.72;5128586;27;20035;-71
2022/03/28 05:31:50;;;;;;;27.95;11.63;;;;;;;3.24;96.99;102432.78;5115612;27;20514;-71
2022/03/28 05:34:16;;;;;;;29.05;12.02;;;;;;;3.25;97.41;102433.66;5127460;27;20046;-71
2022/03/28 05:36:42;;;;;;;28.02;12.70;;;;;;;3.20;96.77;102425.75;5132813;27;20027;-71
2022/03/28 05:39:08;;;;;;;34.10;12.40;;;;;;;3.20;96.80;102430.91;5132608;27;20027;-71
2022/03/28 05:41:33;;;;;;;28.75;13.40;;;;;;;3.21;97.64;102427.53;5126212;27;20028;-71
2022/03/28 05:43:58;;;;;;;29.08;12.38;;;;;;;3.23;97.65;102423.28;5121111;27;20032;-71
2022/03/28 05:46:25;;;;;;;31.80;12.27;;;;;;;3.24;97.61;102425.06;5130134;27;20501;-71
2022/03/28 05:48:50;;;;;;;28.92;11.40;;;;;;;3.23;97.61;102425.84;5131708;27;20457;-71
2022/03/28 05:51:15;;;;;;;28.38;12.05;;;;;;;3.24;97.54;102432.78;5113871;28;20115;-71
2022/03/28 05:53:40;;;;;;;27.65;11.98;;;;;;;3.29;97.66;102427.75;5122529;27;20053;-71
2022/03/28 05:56:06;;;;;;;32.90;12.50;;;;;;;3.31;98.03;102420.09;5116601;27;20033;-71
2022/03/28 05:58:32;;;;;;;27.70;11.57;;;;;;;3.34;97.80;102412.47;5120206;27;20024;-71
2022/03/28 06:00:59;;;;;;;29.08;11.82;;;;;;;3.38;97.56;102417.75;5124100;27;20035;-71
2022/03/28 06:03:25;;;;;;;29.20;11.98;;;;;;;3.41;97.93;102410.09;5114374;27;20028;-71
2022/03/28 06:05:50;;;;;;;33.22;11.98;;;;;;;3.44;97.99;102412.78;5114684;27;20433;-71
2022/03/28 06:08:15;;;;;;;26.60;12.15;;;;;;;3.47;98.04;102405.16;5120435;27;20035;-71
2022/03/28 06:10:41;;;;;;;33.35;12.88;;;;;;;3.52;98.12;102413.88;5118091;27;20019;-72
2022/03/28 06:13:07;;;;;;;25.90;12.38;;;;;;;3.60;98.55;102413.25;5128899;27;20023;-71
2022/03/28 06:15:36;;;;;;;36.17;12.68;;;;;;;3.65;98.47;102406.53;5112378;28;20119;-71
2022/03/28 06:18:03;;;;;;;29.80;11.32;;;;;;;3.73;98.18;102411.09;5119357;27;20023;-71
2022/03/28 06:20:29;;;;;;;33.97;12.23;;;;;;;3.78;98.58;102403.47;5133438;27;20031;-71
2022/03/28 06:22:54;;;;;;;30.88;11.73;;;;;;;3.88;98.32;102415.81;5126645;27;20088;-71
2022/03/28 06:25:20;;;;;;;35.47;11.70;;;;;;;3.95;98.76;102412.56;5103062;27;20475;-72
2022/03/28 06:27:45;;;;;;;28.48;12.20;;;;;;;4.03;98.83;102409.34;5096078;28;20471;-71
2022/03/28 06:30:11;;;;;;;39.35;12.48;;;;;;;4.10;99.30;102406.13;5105492;28;20451;-71
2022/03/28 06:32:43;;;;;;;30.50;11.93;;;;;;;4.18;99.01;102410.63;5103456;28;20056;-71
2022/03/28 06:35:09;;;;;;;36.85;12.85;;;;;;;4.25;99.22;102403.97;5112676;28;20055;-72
2022/03/28 06:37:35;;;;;;;30.63;11.93;;;;;;;4.32;99.18;102408.47;5113044;28;20117;-71
2022/03/28 06:40:00;;;;;;;38.03;12.63;;;;;;;4.35;98.32;102408.53;5112702;28;20023;-71
2022/03/28 06:42:26;;;;;;;36.83;13.57;;;;;;;4.50;99.83;102412.34;5111963;28;20101;-71
2022/03/28 06:44:51;;;;;;;38.70;12.88;;;;;;;4.56;99.42;102407.38;5113724;27;20387;-71
2022/03/28 06:47:19;;;;;;;34.75;13.25;;;;;;;4.64;99.15;102408.41;5113533;27;20111;-72
2022/03/28 06:49:44;;;;;;;35.33;13.00;;;;;;;4.70;98.45;102406.88;5131682;27;20031;-72
2022/03/28 06:52:10;;;;;;;38.25;14.38;;;;;;;4.77;99.68;102413.06;5130354;27;20046;-72
2022/03/28 06:54:35;;;;;;;42.90;15.10;;;;;;;4.85;99.95;102406.41;5120103;27;20076;-71
2022/03/28 06:57:02;;;;;;;32.67;14.50;;;;;;;4.94;100.00;102400.59;5121986;27;20084;-70
2022/03/28 06:59:29;;;;;;;40.25;13.70;;;;;;;5.01;100.00;102396.44;5130861;27;20371;-71
2022/03/28 07:01:55;;;;;;;35.00;14.82;;;;;;;5.07;99.62;102397.47;5128792;27;20473;-71
2022/03/28 07:04:21;;;;;;;47.13;15.57;;;;;;;5.11;99.95;102383.78;5114785;27;20066;-71
2022/03/28 07:06:47;;;;;;;46.17;16.42;;;;;;;5.20;100.00;102389.97;5112051;28;20118;-71
2022/03/28 07:09:13;;;;;;;46.92;16.38;;;;;;;5.26;100.00;102391.00;5119600;27;20105;-71
2022/03/28 07:11:38;;;;;;;47.25;16.98;;;;;;;5.34;99.54;102389.47;5131774;27;20502;-71
2022/03/28 07:14:03;;;;;;;45.63;16.73;;;;;;;5.43;98.83;102385.31;5133133;27;20031;-71
2022/03/28 07:16:28;;;;;;;46.70;15.73;;;;;;;5.50;98.26;102382.06;5114526;27;20039;-71
2022/03/28 07:18:54;;;;;;;52.25;16.85;;;;;;;5.60;98.24;102386.59;5112737;28;20035;-71
2022/03/28 07:21:19;;;;;;;43.25;17.30;;;;;;;5.68;98.96;102377.28;5130520;27;20036;-71
2022/03/28 07:23:44;;;;;;;40.78;17.10;;;;;;;5.77;98.75;102384.38;5121869;27;20027;-71
2022/03/28 07:26:10;;;;;;;44.33;17.27;;;;;;;5.86;98.16;102381.97;5111394;28;20024;-71
2022/03/28 07:28:39;;;;;;;46.28;17.65;;;;;;;5.91;98.22;102369.97;5124176;27;20370;-71
2022/03/28 07:31:08;;;;;;;43.05;17.88;;;;;;;6.02;98.56;102378.88;5131938;27;20023;-72
2022/03/28 07:33:36;;;;;;;39.50;16.67;;;;;;;6.10;97.45;102371.25;5132412;27;20027;-71
2022/03/28 07:36:02;;;;;;;45.88;17.35;;;;;;;6.16;97.21;102371.38;5118010;27;20035;-71
2022/03/28 07:38:27;;;;;;;43.78;17.55;;;;;;;6.24;97.30;102367.19;5112026;28;20030;-71
2022/03/28 07:40:53;;;;;;;47.47;15.98;;;;;;;6.32;96.42;102359.59;5129131;27;20027;-71
2022/03/28 07:43:18;;;;;;;42.15;17.33;;;;;;;6.40;96.27;102362.31;5119731;27;20066;-71
2022/03/28 07:45:43;;;;;;;40.65;17.98;;;;;;;6.42;95.83;102338.19;5132021;27;20047;-71
2022/03/28 07:48:09;;;;;;;40.70;18.27;;;;;;;6.56;95.50;102341.00;5132960;27;20047;-78
2022/03/28 07:50:34;;;;;;;40.22;17.98;;;;;;;6.68;95.25;102330.84;5133242;27;20031;-71
2022/03/28 07:53:00;;;;;;;46.17;20.10;;;;;;;6.78;96.03;102343.13;5135749;27;20063;-72
2022/03/28 07:55:26;;;;;;;43.45;19.70;;;;;;;6.87;94.41;102347.59;5136011;27;20019;-71
2022/03/28 07:57:51;;;;;;;41.83;19.73;;;;;;;6.95;93.81;102338.19;5133611;27;20028;-71
2022/03/28 08:00:17;;;;;;;44.75;19.75;;;;;;;7.06;93.41;102327.09;5130000;27;20543;-71
2022/03/28 08:02:43;;;;;;;41.92;19.08;;;;;;;7.14;93.20;102334.16;5115746;27;20115;-72
2022/03/28 08:05:10;;;;;;;48.40;18.27;;;;;;;7.21;91.57;102338.56;5105328;27;20099;-71
2022/03/28 08:07:36;;;;;;;43.05;19.13;;;;;;;7.28;90.78;102342.13;5113332;28;20036;-72
2022/03/28 08:10:05;;;;;;;43.55;19.52;;;;;;;7.40;91.92;102337.13;5107193;28;20020;-71
2022/03/28 08:12:30;;;;;;;48.80;19.85;;;;;;;7.45;90.56;102335.44;5103731;27;20352;-71
2022/03/28 08:14:56;;;;;;;47.45;19.48;;;;;;;7.51;89.05;102332.06;5107425;27;20588;-71
2022/03/28 08:17:21;;;;;;;45.08;18.70;;;;;;;7.57;88.61;102324.34;5111590;28;20042;-70
2022/03/28 08:19:47;;;;;;;40.33;20.27;;;;;;;7.66;89.17;102321.00;5110292;27;20023;-71
2022/03/28 08:22:13;;;;;;;41.08;19.90;;;;;;;7.79;88.99;102327.22;5112357;28;20420;-72
2022/03/28 08:24:38;;;;;;;50.45;19.50;;;;;;;7.89;88.80;102323.88;5105282;28;20424;-71
2022/03/28 08:27:04;;;;;;;48.08;20.20;;;;;;;8.02;87.85;102315.38;5105754;28;20115;-71
2022/03/28 08:29:32;;;;;;;52.08;21.48;;;;;;;8.13;87.85;102312.88;5111275;28;20487;-71
2022/03/28 08:31:57;;;;;;;41.35;19.98;;;;;;;8.26;86.30;102314.72;5103447;28;20036;-71
2022/03/28 08:34:22;;;;;;;51.40;20.75;;;;;;;8.39;86.35;102313.16;5095690;28;20379;-72
2022/03/28 08:36:48;;;;;;;48.97;20.45;;;;;;;8.51;86.12;102312.41;5097998;27;20034;-71
2022/03/28 08:39:13;;;;;;;45.10;20.52;;;;;;;8.58;84.73;102302.06;5103281;28;20019;-72
2022/03/28 08:41:39;;;;;;;48.30;20.42;;;;;;;8.78;85.21;102301.34;5113096;28;20482;-72
2022/03/28 08:44:05;;;;;;;41.55;19.92;;;;;;;8.96;83.62;102305.78;5111729;28;20027;-72
2022/03/28 08:46:30;;;;;;;42.78;19.58;;;;;;;9.03;82.50;102307.59;5099909;27;20035;-71
2022/03/28 08:48:58;;;;;;;47.30;21.60;;;;;;;9.19;83.23;102300.72;5103526;27;20042;-71
2022/03/28 08:51:24;;;;;;;44.38;20.15;;;;;;;9.35;81.78;102307.75;5106786;27;20027;-73
2022/03/28 08:53:50;;;;;;;41.28;20.55;;;;;;;9.42;80.64;102298.22;5108889;27;20104;-73
2022/03/28 08:56:16;;;;;;;40.25;20.52;;;;;;;9.53;80.61;102302.63;5106090;28;20061;-73
2022/03/28 08:58:41;;;;;;;44.85;20.70;;;;;;;9.67;80.64;102294.00;5113208;27;20035;-72
2022/03/28 09:01:08;;;;;;;41.90;21.23;;;;;;;9.78;78.35;102287.97;5099190;28;20024;-73
2022/03/28 09:03:38;;;;;;;46.45;21.63;;;;;;;9.88;78.05;102295.81;5113394;28;20034;-73
2022/03/28 09:06:34;;;;;;;38.33;19.38;;;;;;;9.92;78.24;102288.00;5114596;28;20069;-73
2022/03/28 09:09:29;;;;;;;41.05;20.73;;;;;;;9.98;78.45;102274.13;5114166;27;20493;-72
2022/03/28 09:11:57;;;;;;;44.80;19.15;;;;;;;10.21;76.40;102287.19;5101139;28;20441;-73
2022/03/28 09:14:29;;;;;;;38.08;19.33;;;;;;;10.28;75.91;102288.97;5114440;27;20375;-73
2022/03/28 09:17:15;;;;;;;40.20;18.73;;;;;;;10.35;76.80;102282.03;5113083;28;20053;-73
2022/03/28 09:19:44;;;;;;;43.58;19.52;;;;;;;10.51;75.79;102279.41;5114306;27;20102;-73
2022/03/28 09:22:14;;;;;;;41.17;22.08;;;;;;;10.67;74.41;102284.63;5116530;27;20028;-73
2022/03/28 09:24:41;;;;;;;47.38;20.63;;;;;;;10.73;74.17;102277.66;5095252;28;20032;-73
2022/03/28 09:27:21;;;;;;;41.05;22.05;;;;;;;10.89;74.79;102275.91;5110616;27;20501;-73
2022/03/28 09:30:01;;;;;;;43.80;23.10;;;;;;;11.04;72.35;102274.97;5102204;28;20032;-73
2022/03/28 09:32:29;;;;;;;49.10;24.90;;;;;;;11.12;71.60;102281.06;5093336;27;20380;-73
2022/03/28 09:35:24;;;;;;;45.97;22.85;;;;;;;11.23;72.88;102281.03;5095132;27;20077;-74
2022/03/28 09:37:58;;;;;;;48.00;22.85;;;;;;;11.33;71.66;102281.88;5101649;27;20050;-73
2022/03/28 09:40:29;;;;;;;47.13;23.85;;;;;;;11.34;72.14;102268.78;5095674;28;20036;-73
2022/03/28 09:42:56;;;;;;;45.67;22.88;;;;;;;11.41;71.32;102267.91;5098655;28;20085;-74
2022/03/28 09:45:25;;;;;;;45.50;23.77;;;;;;;11.45;69.81;102266.16;5094379;28;20046;-73
2022/03/28 09:47:59;;;;;;;47.83;24.35;;;;;;;11.55;71.56;102262.63;5095779;27;20050;-73
2022/03/28 09:50:38;;;;;;;40.30;21.33;;;;;;;11.73;70.56;102257.28;5095157;28;20439;-73
2022/03/28 09:53:12;;;;;;;43.58;20.48;;;;;;;11.94;70.21;102258.94;5111140;28;20027;-73
2022/03/28 09:55:53;;;;;;;41.15;20.73;;;;;;;12.16;70.18;102254.44;5110391;28;20032;-73
2022/03/28 09:58:36;;;;;;;44.58;20.20;;;;;;;12.37;70.23;102247.31;5107377;28;20024;-73
2022/03/28 10:01:06;;;;;;;45.38;22.02;;;;;;;12.55;69.49;102251.47;5099769;28;20364;-73
2022/03/28 10:03:33;;;;;;;42.08;21.42;;;;;;;12.63;69.34;102223.53;5098987;27;20019;-73
2022/03/28 10:06:03;;;;;;;41.72;22.63;;;;;;;12.76;68.17;102235.59;5098013;27;20499;-73
2022/03/28 10:08:29;;;;;;;42.83;21.48;;;;;;;12.82;67.10;102238.16;5113326;28;20015;-73
2022/03/28 10:10:57;;;;;;;42.10;21.20;;;;;;;12.93;65.39;102235.41;5113096;28;20061;-73
2022/03/28 10:13:23;;;;;;;45.50;21.67;;;;;;;13.10;67.50;102241.31;5111895;28;20028;-73
2022/03/28 10:15:49;;;;;;;44.63;21.90;;;;;;;13.20;65.45;102238.59;5108074;27;20039;-73
2022/03/28 10:18:15;;;;;;;40.50;21.52;;;;;;;13.32;65.99;102234.09;5112576;27;20033;-73
2022/03/28 10:20:42;;;;;;;40.67;22.73;;;;;;;13.36;65.10;102232.31;5112152;28;20376;-73
2022/03/28 10:23:09;;;;;;;42.30;22.85;;;;;;;13.42;64.02;102229.59;5128546;27;20090;-82
2022/03/28 10:25:36;;;;;;;48.78;23.17;;;;;;;13.57;65.34;102215.44;5119925;27;20066;-73
2022/03/28 10:28:01;;;;;;;42.33;23.08;;;;;;;13.67;62.71;102221.41;5111902;28;20019;-73
2022/03/28 10:30:28;;;;;;;48.55;22.98;;;;;;;13.71;59.76;102216.09;5112794;28;20027;-73
2022/03/28 10:33:19;;;;;;;47.42;24.05;;;;;;;13.79;61.37;102206.34;5102980;28;20054;-73
2022/03/28 10:36:16;;;;;;;40.28;21.30;;;;;;;13.92;61.80;102201.78;5099581;27;20044;-74
2022/03/28 10:38:42;;;;;;;45.92;22.63;;;;;;;14.14;60.83;102199.69;5097769;27;20487;-73
2022/03/28 10:41:15;;;;;;;45.50;23.08;;;;;;;14.25;59.88;102200.38;5129855;27;20146;-73
2022/03/28 10:43:40;;;;;;;41.72;23.13;;;;;;;14.46;59.80;102190.41;5132093;27;20039;-73
2022/03/28 10:46:10;;;;;;;43.08;23.02;;;;;;;14.58;61.03;102182.31;5124261;27;20028;-73
2022/03/28 10:48:51;;;;;;;40.13;22.23;;;;;;;14.67;57.56;102173.41;5111327;28;20110;-73
2022/03/28 10:51:19;;;;;;;40.75;22.45;;;;;;;14.72;56.87;102180.31;5112195;28;20059;-73
2022/03/28 10:53:53;;;;;;;42.22;22.88;;;;;;;14.78;57.37;102183.69;5118383;27;20042;-73
2022/03/28 10:56:38;;;;;;;39.90;22.08;;;;;;;14.83;56.27;102176.63;5132012;27;20432;-75
2022/03/28 10:59:13;;;;;;;39.47;22.40;;;;;;;14.90;57.55;102172.97;5133103;27;20145;-74
2022/03/28 11:01:43;;;;;;;36.75;21.40;;;;;;;15.01;55.90;102176.25;5132982;27;20072;-73
2022/03/28 11:04:24;;;;;;;37.05;20.58;;;;;;;15.13;56.91;102170.72;5123195;27;20459;-74
2022/03/28 11:07:04;;;;;;;37.75;20.67;;;;;;;15.23;56.52;102161.72;5098939;28;20027;-74
2022/03/28 11:09:51;;;;;;;44.72;23.25;;;;;;;15.29;56.77;102171.25;5092441;28;20055;-73
2022/03/28 11:12:38;;;;;;;40.83;21.27;;;;;;;15.48;55.14;102166.47;5110371;28;20032;-73
2022/03/28 11:15:21;;;;;;;34.92;21.20;;;;;;;15.63;54.78;102154.72;5125448;27;20047;-74
2022/03/28 11:18:07;;;;;;;33.53;20.55;;;;;;;15.84;55.35;102163.91;5131681;27;20019;-73